sensor_id;sensor_type;location;lat;lon;timestamp;P1;durP1;ratioP1;P2;durP2;ratioP2
14251;SDS011;7210;51.502;10.722;2022-08-19T00:00:40;18.43;;;16.73;;
14251;SDS011;7210;51.502;10.722;2022-08-19T00:03:07;17.73;;;16.10;;
14251;SDS011;7210;51.502;10.722;2022-08-19T00:05:34;15.97;;;14.67;;
14251;SDS011;7210;51.502;10.722;2022-08-19T00:08:02;17.57;;;15.97;;
14251;SDS011;7210;51.502;10.722;2022-08-19T00:10:31;17.33;;;15.73;;
14251;SDS011;7210;51.502;10.722;2022-08-19T00:12:59;18.20;;;16.67;;
14251;SDS011;7210;51.502;10.722;2022-08-19T00:15:26;18.37;;;16.70;;
14251;SDS011;7210;51.502;10.722;2022-08-19T00:17:53;20.20;;;18.37;;
14251;SDS011;7210;51.502;10.722;2022-08-19T00:20:21;18.40;;;16.70;;
14251;SDS011;7210;51.502;10.722;2022-08-19T00:22:49;18.80;;;16.83;;
14251;SDS011;7210;51.502;10.722;2022-08-19T00:25:16;18.63;;;17.00;;
14251;SDS011;7210;51.502;10.722;2022-08-19T00:27:45;19.20;;;17.57;;
14251;SDS011;7210;51.502;10.722;2022-08-19T00:30:13;18.53;;;16.83;;
14251;SDS011;7210;51.502;10.722;2022-08-19T00:32:41;19.87;;;18.07;;
14251;SDS011;7210;51.502;10.722;2022-08-19T00:35:08;19.43;;;17.67;;
14251;SDS011;7210;51.502;10.722;2022-08-19T00:37:36;20.30;;;18.17;;
14251;SDS011;7210;51.502;10.722;2022-08-19T00:40:06;18.10;;;16.50;;
14251;SDS011;7210;51.502;10.722;2022-08-19T00:42:34;18.73;;;17.00;;
14251;SDS011;7210;51.502;10.722;2022-08-19T00:45:04;16.97;;;15.47;;
14251;SDS011;7210;51.502;10.722;2022-08-19T00:47:42;18.53;;;16.80;;
14251;SDS011;7210;51.502;10.722;2022-08-19T00:50:11;17.73;;;16.13;;
14251;SDS011;7210;51.502;10.722;2022-08-19T00:52:43;19.30;;;17.57;;
14251;SDS011;7210;51.502;10.722;2022-08-19T00:55:14;17.93;;;16.27;;
14251;SDS011;7210;51.502;10.722;2022-08-19T00:57:48;17.53;;;16.13;;
14251;SDS011;7210;51.502;10.722;2022-08-19T01:00:23;18.53;;;16.87;;
14251;SDS011;7210;51.502;10.722;2022-08-19T01:02:52;18.00;;;16.20;;
14251;SDS011;7210;51.502;10.722;2022-08-19T01:05:21;17.90;;;16.30;;
14251;SDS011;7210;51.502;10.722;2022-08-19T01:07:59;18.60;;;16.93;;
14251;SDS011;7210;51.502;10.722;2022-08-19T01:10:31;19.37;;;17.63;;
14251;SDS011;7210;51.502;10.722;2022-08-19T01:13:03;17.23;;;15.73;;
14251;SDS011;7210;51.502;10.722;2022-08-19T01:15:33;19.27;;;17.57;;
14251;SDS011;7210;51.502;10.722;2022-08-19T01:18:07;19.10;;;17.40;;
14251;SDS011;7210;51.502;10.722;2022-08-19T01:20:38;19.20;;;17.47;;
14251;SDS011;7210;51.502;10.722;2022-08-19T01:23:08;19.60;;;17.77;;
14251;SDS011;7210;51.502;10.722;2022-08-19T01:25:39;20.07;;;18.20;;
14251;SDS011;7210;51.502;10.722;2022-08-19T01:28:15;19.53;;;17.83;;
14251;SDS011;7210;51.502;10.722;2022-08-19T01:30:46;19.30;;;17.67;;
14251;SDS011;7210;51.502;10.722;2022-08-19T01:33:14;18.33;;;16.77;;
14251;SDS011;7210;51.502;10.722;2022-08-19T01:35:42;19.03;;;17.43;;
14251;SDS011;7210;51.502;10.722;2022-08-19T01:38:20;20.13;;;18.17;;
14251;SDS011;7210;51.502;10.722;2022-08-19T01:40:50;19.93;;;18.10;;
14251;SDS011;7210;51.502;10.722;2022-08-19T01:43:18;20.97;;;18.97;;
14251;SDS011;7210;51.502;10.722;2022-08-19T01:45:46;20.90;;;19.00;;
14251;SDS011;7210;51.502;10.722;2022-08-19T01:48:13;21.20;;;19.30;;
14251;SDS011;7210;51.502;10.722;2022-08-19T01:50:40;22.20;;;20.20;;
14251;SDS011;7210;51.502;10.722;2022-08-19T01:53:09;20.93;;;18.93;;
14251;SDS011;7210;51.502;10.722;2022-08-19T01:55:39;22.77;;;20.67;;
14251;SDS011;7210;51.502;10.722;2022-08-19T01:58:10;23.63;;;21.47;;
14251;SDS011;7210;51.502;10.722;2022-08-19T02:00:43;24.47;;;22.07;;
14251;SDS011;7210;51.502;10.722;2022-08-19T02:03:11;24.70;;;22.33;;
14251;SDS011;7210;51.502;10.722;2022-08-19T02:05:40;24.67;;;22.47;;
14251;SDS011;7210;51.502;10.722;2022-08-19T02:11:17;25.27;;;22.77;;
14251;SDS011;7210;51.502;10.722;2022-08-19T02:13:47;26.27;;;23.93;;
14251;SDS011;7210;51.502;10.722;2022-08-19T02:16:15;26.00;;;23.70;;
14251;SDS011;7210;51.502;10.722;2022-08-19T02:21:59;28.30;;;25.43;;
14251;SDS011;7210;51.502;10.722;2022-08-19T02:24:27;27.20;;;24.57;;
14251;SDS011;7210;51.502;10.722;2022-08-19T02:27:00;28.87;;;26.27;;
14251;SDS011;7210;51.502;10.722;2022-08-19T02:29:28;27.73;;;25.13;;
14251;SDS011;7210;51.502;10.722;2022-08-19T02:31:55;28.33;;;25.57;;
14251;SDS011;7210;51.502;10.722;2022-08-19T02:34:23;29.17;;;26.27;;
14251;SDS011;7210;51.502;10.722;2022-08-19T02:36:50;29.10;;;26.07;;
14251;SDS011;7210;51.502;10.722;2022-08-19T02:39:18;30.33;;;27.40;;
14251;SDS011;7210;51.502;10.722;2022-08-19T02:41:44;27.60;;;24.93;;
14251;SDS011;7210;51.502;10.722;2022-08-19T02:44:13;29.47;;;26.60;;
14251;SDS011;7210;51.502;10.722;2022-08-19T02:46:42;30.73;;;27.83;;
14251;SDS011;7210;51.502;10.722;2022-08-19T02:49:11;30.53;;;27.53;;
14251;SDS011;7210;51.502;10.722;2022-08-19T02:51:42;29.30;;;26.27;;
14251;SDS011;7210;51.502;10.722;2022-08-19T02:54:17;30.03;;;26.93;;
14251;SDS011;7210;51.502;10.722;2022-08-19T02:56:47;31.67;;;28.47;;
14251;SDS011;7210;51.502;10.722;2022-08-19T02:59:16;30.03;;;27.03;;
14251;SDS011;7210;51.502;10.722;2022-08-19T03:01:43;29.03;;;26.30;;
14251;SDS011;7210;51.502;10.722;2022-08-19T03:04:12;31.27;;;27.37;;
14251;SDS011;7210;51.502;10.722;2022-08-19T03:06:43;27.80;;;25.17;;
14251;SDS011;7210;51.502;10.722;2022-08-19T03:09:13;29.10;;;26.30;;
14251;SDS011;7210;51.502;10.722;2022-08-19T03:11:43;28.90;;;26.00;;
14251;SDS011;7210;51.502;10.722;2022-08-19T03:14:10;29.93;;;27.07;;
14251;SDS011;7210;51.502;10.722;2022-08-19T03:16:42;27.00;;;24.30;;
14251;SDS011;7210;51.502;10.722;2022-08-19T03:19:12;28.03;;;25.10;;
14251;SDS011;7210;51.502;10.722;2022-08-19T03:21:42;28.70;;;25.97;;
14251;SDS011;7210;51.502;10.722;2022-08-19T03:24:11;28.90;;;26.00;;
14251;SDS011;7210;51.502;10.722;2022-08-19T03:26:40;29.23;;;26.23;;
14251;SDS011;7210;51.502;10.722;2022-08-19T03:29:11;29.90;;;26.90;;
14251;SDS011;7210;51.502;10.722;2022-08-19T03:31:39;30.07;;;27.17;;
14251;SDS011;7210;51.502;10.722;2022-08-19T03:34:09;30.33;;;27.27;;
14251;SDS011;7210;51.502;10.722;2022-08-19T03:36:38;30.07;;;27.27;;
14251;SDS011;7210;51.502;10.722;2022-08-19T03:39:05;30.03;;;27.03;;
14251;SDS011;7210;51.502;10.722;2022-08-19T03:41:36;29.77;;;27.07;;
14251;SDS011;7210;51.502;10.722;2022-08-19T03:44:06;28.77;;;25.83;;
14251;SDS011;7210;51.502;10.722;2022-08-19T03:46:37;29.70;;;26.57;;
14251;SDS011;7210;51.502;10.722;2022-08-19T03:49:28;28.23;;;25.23;;
14251;SDS011;7210;51.502;10.722;2022-08-19T03:51:58;25.67;;;23.37;;
14251;SDS011;7210;51.502;10.722;2022-08-19T03:54:26;23.13;;;20.73;;
14251;SDS011;7210;51.502;10.722;2022-08-19T03:56:55;22.70;;;20.50;;
14251;SDS011;7210;51.502;10.722;2022-08-19T03:59:24;21.07;;;18.87;;
14251;SDS011;7210;51.502;10.722;2022-08-19T04:02:02;23.03;;;19.57;;
14251;SDS011;7210;51.502;10.722;2022-08-19T04:04:35;21.47;;;19.23;;
14251;SDS011;7210;51.502;10.722;2022-08-19T04:07:03;20.93;;;18.93;;
14251;SDS011;7210;51.502;10.722;2022-08-19T04:09:32;20.77;;;18.70;;
14251;SDS011;7210;51.502;10.722;2022-08-19T04:12:02;20.73;;;18.63;;
14251;SDS011;7210;51.502;10.722;2022-08-19T04:14:31;18.03;;;16.33;;
14251;SDS011;7210;51.502;10.722;2022-08-19T04:17:00;19.37;;;17.53;;
14251;SDS011;7210;51.502;10.722;2022-08-19T04:19:30;18.37;;;16.60;;
14251;SDS011;7210;51.502;10.722;2022-08-19T04:21:59;17.53;;;15.70;;
14251;SDS011;7210;51.502;10.722;2022-08-19T04:24:27;17.43;;;15.50;;
14251;SDS011;7210;51.502;10.722;2022-08-19T04:26:55;17.50;;;15.87;;
14251;SDS011;7210;51.502;10.722;2022-08-19T04:29:25;16.67;;;14.90;;
14251;SDS011;7210;51.502;10.722;2022-08-19T04:31:53;16.73;;;15.07;;
14251;SDS011;7210;51.502;10.722;2022-08-19T04:34:25;17.67;;;16.00;;
14251;SDS011;7210;51.502;10.722;2022-08-19T04:36:55;18.57;;;15.20;;
14251;SDS011;7210;51.502;10.722;2022-08-19T04:39:26;17.27;;;15.47;;
14251;SDS011;7210;51.502;10.722;2022-08-19T04:42:10;17.73;;;16.07;;
14251;SDS011;7210;51.502;10.722;2022-08-19T04:44:55;18.20;;;15.07;;
14251;SDS011;7210;51.502;10.722;2022-08-19T04:47:23;16.80;;;15.10;;
14251;SDS011;7210;51.502;10.722;2022-08-19T04:49:52;17.27;;;15.00;;
14251;SDS011;7210;51.502;10.722;2022-08-19T04:52:19;16.87;;;15.10;;
14251;SDS011;7210;51.502;10.722;2022-08-19T04:54:47;15.23;;;13.73;;
14251;SDS011;7210;51.502;10.722;2022-08-19T04:57:15;15.73;;;14.23;;
14251;SDS011;7210;51.502;10.722;2022-08-19T04:59:42;16.50;;;15.00;;
14251;SDS011;7210;51.502;10.722;2022-08-19T05:02:11;16.43;;;14.77;;
14251;SDS011;7210;51.502;10.722;2022-08-19T05:04:38;16.00;;;14.13;;
14251;SDS011;7210;51.502;10.722;2022-08-19T05:07:07;16.27;;;14.73;;
14251;SDS011;7210;51.502;10.722;2022-08-19T05:09:35;16.10;;;14.53;;
14251;SDS011;7210;51.502;10.722;2022-08-19T05:12:02;16.93;;;15.17;;
14251;SDS011;7210;51.502;10.722;2022-08-19T05:14:31;17.07;;;15.40;;
14251;SDS011;7210;51.502;10.722;2022-08-19T05:17:00;16.47;;;15.17;;
14251;SDS011;7210;51.502;10.722;2022-08-19T05:19:27;17.40;;;15.57;;
14251;SDS011;7210;51.502;10.722;2022-08-19T05:22:13;17.63;;;15.90;;
14251;SDS011;7210;51.502;10.722;2022-08-19T05:25:13;19.40;;;17.37;;
14251;SDS011;7210;51.502;10.722;2022-08-19T05:31:20;19.27;;;17.37;;
14251;SDS011;7210;51.502;10.722;2022-08-19T05:33:48;21.23;;;17.43;;
14251;SDS011;7210;51.502;10.722;2022-08-19T05:36:15;19.77;;;17.73;;
14251;SDS011;7210;51.502;10.722;2022-08-19T05:38:45;18.83;;;16.87;;
14251;SDS011;7210;51.502;10.722;2022-08-19T05:41:15;18.30;;;16.50;;
14251;SDS011;7210;51.502;10.722;2022-08-19T05:43:42;17.10;;;15.50;;
14251;SDS011;7210;51.502;10.722;2022-08-19T05:46:15;16.80;;;15.13;;
14251;SDS011;7210;51.502;10.722;2022-08-19T05:48:44;15.63;;;14.03;;
14251;SDS011;7210;51.502;10.722;2022-08-19T05:51:11;15.97;;;14.47;;
14251;SDS011;7210;51.502;10.722;2022-08-19T05:53:41;14.97;;;13.47;;
14251;SDS011;7210;51.502;10.722;2022-08-19T05:56:12;15.63;;;13.57;;
14251;SDS011;7210;51.502;10.722;2022-08-19T05:58:43;15.17;;;13.70;;
14251;SDS011;7210;51.502;10.722;2022-08-19T06:01:12;14.13;;;12.73;;
14251;SDS011;7210;51.502;10.722;2022-08-19T06:03:44;13.50;;;12.20;;
14251;SDS011;7210;51.502;10.722;2022-08-19T06:06:14;13.33;;;11.93;;
14251;SDS011;7210;51.502;10.722;2022-08-19T06:08:43;14.63;;;12.20;;
14251;SDS011;7210;51.502;10.722;2022-08-19T06:11:18;12.37;;;11.13;;
14251;SDS011;7210;51.502;10.722;2022-08-19T06:13:48;12.03;;;10.87;;
14251;SDS011;7210;51.502;10.722;2022-08-19T06:16:18;11.87;;;10.70;;
14251;SDS011;7210;51.502;10.722;2022-08-19T06:18:48;11.00;;;9.90;;
14251;SDS011;7210;51.502;10.722;2022-08-19T06:21:18;11.20;;;10.10;;
14251;SDS011;7210;51.502;10.722;2022-08-19T06:23:51;11.20;;;9.10;;
14251;SDS011;7210;51.502;10.722;2022-08-19T06:26:23;11.17;;;9.33;;
14251;SDS011;7210;51.502;10.722;2022-08-19T06:28:51;12.97;;;8.90;;
14251;SDS011;7210;51.502;10.722;2022-08-19T06:31:20;10.77;;;8.87;;
14251;SDS011;7210;51.502;10.722;2022-08-19T06:33:59;13.70;;;9.20;;
14251;SDS011;7210;51.502;10.722;2022-08-19T06:36:29;8.60;;;7.80;;
14251;SDS011;7210;51.502;10.722;2022-08-19T06:38:59;8.97;;;8.07;;
14251;SDS011;7210;51.502;10.722;2022-08-19T06:41:30;8.90;;;8.03;;
14251;SDS011;7210;51.502;10.722;2022-08-19T06:44:00;8.50;;;7.80;;
14251;SDS011;7210;51.502;10.722;2022-08-19T06:46:28;8.80;;;7.60;;
14251;SDS011;7210;51.502;10.722;2022-08-19T06:48:59;7.93;;;7.13;;
14251;SDS011;7210;51.502;10.722;2022-08-19T06:51:27;9.20;;;6.87;;
14251;SDS011;7210;51.502;10.722;2022-08-19T06:53:56;7.67;;;6.83;;
14251;SDS011;7210;51.502;10.722;2022-08-19T06:56:25;7.70;;;7.00;;
14251;SDS011;7210;51.502;10.722;2022-08-19T06:59:00;8.23;;;7.32;;
14251;SDS011;7210;51.502;10.722;2022-08-19T07:01:30;7.43;;;6.73;;
14251;SDS011;7210;51.502;10.722;2022-08-19T07:04:03;7.70;;;6.67;;
14251;SDS011;7210;51.502;10.722;2022-08-19T07:06:32;8.07;;;6.33;;
14251;SDS011;7210;51.502;10.722;2022-08-19T07:09:00;7.23;;;6.50;;
14251;SDS011;7210;51.502;10.722;2022-08-19T07:11:28;7.23;;;6.53;;
14251;SDS011;7210;51.502;10.722;2022-08-19T07:14:01;7.20;;;6.60;;
14251;SDS011;7210;51.502;10.722;2022-08-19T07:16:29;6.83;;;6.23;;
14251;SDS011;7210;51.502;10.722;2022-08-19T07:18:57;6.57;;;5.60;;
14251;SDS011;7210;51.502;10.722;2022-08-19T07:21:26;54.47;;;48.57;;
14251;SDS011;7210;51.502;10.722;2022-08-19T07:23:54;7.30;;;6.07;;
14251;SDS011;7210;51.502;10.722;2022-08-19T07:26:25;7.53;;;5.90;;
14251;SDS011;7210;51.502;10.722;2022-08-19T07:28:55;5.50;;;4.77;;
14251;SDS011;7210;51.502;10.722;2022-08-19T07:31:26;6.20;;;5.50;;
14251;SDS011;7210;51.502;10.722;2022-08-19T07:33:57;6.93;;;5.17;;
14251;SDS011;7210;51.502;10.722;2022-08-19T07:36:29;6.60;;;5.13;;
14251;SDS011;7210;51.502;10.722;2022-08-19T07:38:57;6.37;;;5.23;;
14251;SDS011;7210;51.502;10.722;2022-08-19T07:41:28;5.33;;;4.87;;
14251;SDS011;7210;51.502;10.722;2022-08-19T07:43:57;6.80;;;4.80;;
14251;SDS011;7210;51.502;10.722;2022-08-19T07:46:30;7.57;;;5.50;;
14251;SDS011;7210;51.502;10.722;2022-08-19T07:48:57;5.43;;;4.87;;
14251;SDS011;7210;51.502;10.722;2022-08-19T07:51:25;6.43;;;4.80;;
14251;SDS011;7210;51.502;10.722;2022-08-19T07:53:54;8.53;;;6.10;;
14251;SDS011;7210;51.502;10.722;2022-08-19T07:56:22;5.07;;;4.43;;
14251;SDS011;7210;51.502;10.722;2022-08-19T07:58:50;8.00;;;5.30;;
14251;SDS011;7210;51.502;10.722;2022-08-19T08:01:20;10.30;;;5.90;;
14251;SDS011;7210;51.502;10.722;2022-08-19T08:03:53;7.70;;;6.90;;
14251;SDS011;7210;51.502;10.722;2022-08-19T08:06:40;6.10;;;5.50;;
14251;SDS011;7210;51.502;10.722;2022-08-19T08:09:27;6.63;;;5.00;;
14251;SDS011;7210;51.502;10.722;2022-08-19T08:11:59;7.73;;;5.20;;
14251;SDS011;7210;51.502;10.722;2022-08-19T08:14:31;10.73;;;5.43;;
14251;SDS011;7210;51.502;10.722;2022-08-19T08:17:02;10.10;;;5.10;;
14251;SDS011;7210;51.502;10.722;2022-08-19T08:19:33;4.90;;;4.30;;
14251;SDS011;7210;51.502;10.722;2022-08-19T08:22:01;6.03;;;4.50;;
14251;SDS011;7210;51.502;10.722;2022-08-19T08:24:31;9.13;;;4.87;;
14251;SDS011;7210;51.502;10.722;2022-08-19T08:26:59;5.07;;;4.53;;
14251;SDS011;7210;51.502;10.722;2022-08-19T08:29:29;4.63;;;4.23;;
14251;SDS011;7210;51.502;10.722;2022-08-19T08:32:00;6.03;;;5.10;;
14251;SDS011;7210;51.502;10.722;2022-08-19T08:34:28;5.40;;;4.67;;
14251;SDS011;7210;51.502;10.722;2022-08-19T08:36:59;7.23;;;4.90;;
14251;SDS011;7210;51.502;10.722;2022-08-19T08:39:29;5.43;;;4.93;;
14251;SDS011;7210;51.502;10.722;2022-08-19T08:42:00;5.40;;;4.90;;
14251;SDS011;7210;51.502;10.722;2022-08-19T08:44:42;5.17;;;4.57;;
14251;SDS011;7210;51.502;10.722;2022-08-19T08:47:21;5.00;;;4.50;;
14251;SDS011;7210;51.502;10.722;2022-08-19T08:49:54;10.43;;;5.13;;
14251;SDS011;7210;51.502;10.722;2022-08-19T08:52:30;5.17;;;4.67;;
14251;SDS011;7210;51.502;10.722;2022-08-19T08:55:04;7.90;;;4.70;;
14251;SDS011;7210;51.502;10.722;2022-08-19T08:57:38;5.27;;;4.73;;
14251;SDS011;7210;51.502;10.722;2022-08-19T09:00:18;5.10;;;4.60;;
14251;SDS011;7210;51.502;10.722;2022-08-19T09:02:52;3.97;;;3.67;;
14251;SDS011;7210;51.502;10.722;2022-08-19T09:05:22;4.90;;;4.50;;
14251;SDS011;7210;51.502;10.722;2022-08-19T09:07:58;6.33;;;4.60;;
14251;SDS011;7210;51.502;10.722;2022-08-19T09:10:37;6.70;;;4.80;;
14251;SDS011;7210;51.502;10.722;2022-08-19T09:13:12;4.57;;;4.17;;
14251;SDS011;7210;51.502;10.722;2022-08-19T09:15:54;6.73;;;4.43;;
14251;SDS011;7210;51.502;10.722;2022-08-19T09:18:37;6.87;;;3.67;;
14251;SDS011;7210;51.502;10.722;2022-08-19T09:21:07;6.00;;;4.10;;
14251;SDS011;7210;51.502;10.722;2022-08-19T09:23:39;4.00;;;3.60;;
14251;SDS011;7210;51.502;10.722;2022-08-19T09:26:16;3.97;;;3.50;;
14251;SDS011;7210;51.502;10.722;2022-08-19T09:28:51;4.80;;;3.50;;
14251;SDS011;7210;51.502;10.722;2022-08-19T09:31:24;4.03;;;3.43;;
14251;SDS011;7210;51.502;10.722;2022-08-19T09:33:54;3.60;;;3.30;;
14251;SDS011;7210;51.502;10.722;2022-08-19T09:36:23;4.67;;;3.20;;
14251;SDS011;7210;51.502;10.722;2022-08-19T09:38:59;4.77;;;3.53;;
14251;SDS011;7210;51.502;10.722;2022-08-19T09:41:27;19.77;;;4.30;;
14251;SDS011;7210;51.502;10.722;2022-08-19T09:43:54;5.37;;;3.33;;
14251;SDS011;7210;51.502;10.722;2022-08-19T09:46:25;6.10;;;3.63;;
14251;SDS011;7210;51.502;10.722;2022-08-19T09:48:57;4.53;;;3.37;;
14251;SDS011;7210;51.502;10.722;2022-08-19T09:51:26;3.67;;;3.37;;
14251;SDS011;7210;51.502;10.722;2022-08-19T09:53:58;4.60;;;3.30;;
14251;SDS011;7210;51.502;10.722;2022-08-19T09:56:31;3.47;;;3.10;;
14251;SDS011;7210;51.502;10.722;2022-08-19T09:58:58;3.27;;;2.97;;
14251;SDS011;7210;51.502;10.722;2022-08-19T10:01:28;3.20;;;2.90;;
14251;SDS011;7210;51.502;10.722;2022-08-19T10:03:58;3.67;;;2.80;;
14251;SDS011;7210;51.502;10.722;2022-08-19T10:06:28;5.23;;;3.10;;
14251;SDS011;7210;51.502;10.722;2022-08-19T10:08:57;3.77;;;2.87;;
14251;SDS011;7210;51.502;10.722;2022-08-19T10:11:27;3.23;;;2.57;;
14251;SDS011;7210;51.502;10.722;2022-08-19T10:13:54;3.80;;;2.70;;
14251;SDS011;7210;51.502;10.722;2022-08-19T10:16:22;2.93;;;2.43;;
14251;SDS011;7210;51.502;10.722;2022-08-19T10:18:50;3.27;;;2.70;;
14251;SDS011;7210;51.502;10.722;2022-08-19T10:21:21;3.17;;;2.60;;
14251;SDS011;7210;51.502;10.722;2022-08-19T10:23:51;2.60;;;2.40;;
14251;SDS011;7210;51.502;10.722;2022-08-19T10:26:23;3.33;;;2.40;;
14251;SDS011;7210;51.502;10.722;2022-08-19T10:28:55;2.83;;;2.53;;
14251;SDS011;7210;51.502;10.722;2022-08-19T10:31:24;2.43;;;2.23;;
14251;SDS011;7210;51.502;10.722;2022-08-19T10:33:55;2.60;;;2.40;;
14251;SDS011;7210;51.502;10.722;2022-08-19T10:36:25;3.30;;;2.67;;
14251;SDS011;7210;51.502;10.722;2022-08-19T10:38:55;2.70;;;2.30;;
14251;SDS011;7210;51.502;10.722;2022-08-19T10:41:29;3.13;;;2.37;;
14251;SDS011;7210;51.502;10.722;2022-08-19T10:44:00;3.33;;;2.50;;
14251;SDS011;7210;51.502;10.722;2022-08-19T10:46:31;3.57;;;2.50;;
14251;SDS011;7210;51.502;10.722;2022-08-19T10:49:04;3.33;;;2.47;;
14251;SDS011;7210;51.502;10.722;2022-08-19T10:51:32;3.00;;;2.57;;
14251;SDS011;7210;51.502;10.722;2022-08-19T10:54:17;2.43;;;2.23;;
14251;SDS011;7210;51.502;10.722;2022-08-19T10:56:46;2.47;;;2.00;;
14251;SDS011;7210;51.502;10.722;2022-08-19T10:59:19;2.30;;;2.10;;
14251;SDS011;7210;51.502;10.722;2022-08-19T11:01:49;2.30;;;2.10;;
14251;SDS011;7210;51.502;10.722;2022-08-19T11:04:18;2.83;;;2.10;;
14251;SDS011;7210;51.502;10.722;2022-08-19T11:06:47;2.63;;;2.37;;
14251;SDS011;7210;51.502;10.722;2022-08-19T11:09:18;2.47;;;2.27;;
14251;SDS011;7210;51.502;10.722;2022-08-19T11:11:51;9.63;;;2.50;;
14251;SDS011;7210;51.502;10.722;2022-08-19T11:14:20;2.47;;;2.00;;
14251;SDS011;7210;51.502;10.722;2022-08-19T11:16:49;2.63;;;1.90;;
14251;SDS011;7210;51.502;10.722;2022-08-19T11:19:18;4.73;;;2.30;;
14251;SDS011;7210;51.502;10.722;2022-08-19T11:21:46;4.37;;;2.53;;
14251;SDS011;7210;51.502;10.722;2022-08-19T11:24:15;18.47;;;3.10;;
14251;SDS011;7210;51.502;10.722;2022-08-19T11:26:46;10.37;;;3.30;;
14251;SDS011;7210;51.502;10.722;2022-08-19T11:29:18;3.23;;;2.20;;
14251;SDS011;7210;51.502;10.722;2022-08-19T11:31:51;13.40;;;2.83;;
14251;SDS011;7210;51.502;10.722;2022-08-19T11:34:19;2.43;;;2.03;;
14251;SDS011;7210;51.502;10.722;2022-08-19T11:36:49;6.47;;;2.33;;
14251;SDS011;7210;51.502;10.722;2022-08-19T11:39:18;4.47;;;2.53;;
14251;SDS011;7210;51.502;10.722;2022-08-19T11:41:48;3.30;;;2.00;;
14251;SDS011;7210;51.502;10.722;2022-08-19T11:44:15;3.00;;;2.33;;
14251;SDS011;7210;51.502;10.722;2022-08-19T11:46:44;2.03;;;1.92;;
14251;SDS011;7210;51.502;10.722;2022-08-19T11:49:12;2.05;;;1.90;;
14251;SDS011;7210;51.502;10.722;2022-08-19T11:51:40;2.20;;;2.00;;
14251;SDS011;7210;51.502;10.722;2022-08-19T11:54:10;1.97;;;1.87;;
14251;SDS011;7210;51.502;10.722;2022-08-19T11:56:39;3.07;;;2.00;;
14251;SDS011;7210;51.502;10.722;2022-08-19T11:59:07;10.07;;;2.38;;
14251;SDS011;7210;51.502;10.722;2022-08-19T12:01:38;3.38;;;2.47;;
14251;SDS011;7210;51.502;10.722;2022-08-19T12:04:06;2.00;;;1.88;;
14251;SDS011;7210;51.502;10.722;2022-08-19T12:06:33;2.08;;;1.92;;
14251;SDS011;7210;51.502;10.722;2022-08-19T12:09:05;3.40;;;2.00;;
14251;SDS011;7210;51.502;10.722;2022-08-19T12:11:35;2.55;;;2.10;;
14251;SDS011;7210;51.502;10.722;2022-08-19T12:14:03;1.75;;;1.65;;
14251;SDS011;7210;51.502;10.722;2022-08-19T12:16:31;4.75;;;2.00;;
14251;SDS011;7210;51.502;10.722;2022-08-19T12:19:00;2.83;;;1.90;;
14251;SDS011;7210;51.502;10.722;2022-08-19T12:21:31;1.90;;;1.80;;
14251;SDS011;7210;51.502;10.722;2022-08-19T12:24:01;2.00;;;1.80;;
14251;SDS011;7210;51.502;10.722;2022-08-19T12:26:37;3.33;;;1.90;;
14251;SDS011;7210;51.502;10.722;2022-08-19T12:29:04;2.20;;;1.90;;
14251;SDS011;7210;51.502;10.722;2022-08-19T12:31:33;2.20;;;2.00;;
14251;SDS011;7210;51.502;10.722;2022-08-19T12:34:09;2.15;;;1.67;;
14251;SDS011;7210;51.502;10.722;2022-08-19T12:36:37;1.70;;;1.60;;
14251;SDS011;7210;51.502;10.722;2022-08-19T12:39:05;2.67;;;1.73;;
14251;SDS011;7210;51.502;10.722;2022-08-19T12:41:33;3.08;;;2.00;;
14251;SDS011;7210;51.502;10.722;2022-08-19T12:44:01;2.03;;;1.92;;
14251;SDS011;7210;51.502;10.722;2022-08-19T12:46:30;2.20;;;2.00;;
14251;SDS011;7210;51.502;10.722;2022-08-19T12:48:58;2.22;;;1.58;;
14251;SDS011;7210;51.502;10.722;2022-08-19T12:51:26;4.03;;;2.15;;
14251;SDS011;7210;51.502;10.722;2022-08-19T12:53:53;2.20;;;2.00;;
14251;SDS011;7210;51.502;10.722;2022-08-19T12:56:21;2.92;;;2.17;;
14251;SDS011;7210;51.502;10.722;2022-08-19T12:58:48;2.58;;;1.80;;
14251;SDS011;7210;51.502;10.722;2022-08-19T13:01:15;2.28;;;2.00;;
14251;SDS011;7210;51.502;10.722;2022-08-19T13:03:46;4.35;;;1.85;;
14251;SDS011;7210;51.502;10.722;2022-08-19T13:06:13;5.15;;;2.20;;
14251;SDS011;7210;51.502;10.722;2022-08-19T13:08:46;3.92;;;2.03;;
14251;SDS011;7210;51.502;10.722;2022-08-19T13:11:14;2.08;;;1.80;;
14251;SDS011;7210;51.502;10.722;2022-08-19T13:13:45;2.28;;;2.08;;
14251;SDS011;7210;51.502;10.722;2022-08-19T13:16:17;3.85;;;2.30;;
14251;SDS011;7210;51.502;10.722;2022-08-19T13:18:47;3.33;;;2.30;;
14251;SDS011;7210;51.502;10.722;2022-08-19T13:21:17;4.55;;;1.98;;
14251;SDS011;7210;51.502;10.722;2022-08-19T13:23:53;3.97;;;2.33;;
14251;SDS011;7210;51.502;10.722;2022-08-19T13:26:21;2.20;;;2.00;;
14251;SDS011;7210;51.502;10.722;2022-08-19T13:28:48;3.33;;;2.20;;
14251;SDS011;7210;51.502;10.722;2022-08-19T13:31:34;3.67;;;2.42;;
14251;SDS011;7210;51.502;10.722;2022-08-19T13:34:26;2.63;;;2.13;;
14251;SDS011;7210;51.502;10.722;2022-08-19T13:36:58;3.90;;;2.03;;
14251;SDS011;7210;51.502;10.722;2022-08-19T13:39:30;3.15;;;2.17;;
14251;SDS011;7210;51.502;10.722;2022-08-19T13:42:01;2.05;;;1.77;;
14251;SDS011;7210;51.502;10.722;2022-08-19T13:44:30;1.90;;;1.80;;
14251;SDS011;7210;51.502;10.722;2022-08-19T13:47:00;2.85;;;1.73;;
14251;SDS011;7210;51.502;10.722;2022-08-19T13:49:30;2.70;;;1.70;;
14251;SDS011;7210;51.502;10.722;2022-08-19T13:51:58;2.05;;;1.80;;
14251;SDS011;7210;51.502;10.722;2022-08-19T13:54:25;2.78;;;1.80;;
14251;SDS011;7210;51.502;10.722;2022-08-19T13:56:54;2.08;;;1.88;;
14251;SDS011;7210;51.502;10.722;2022-08-19T13:59:21;3.28;;;1.80;;
14251;SDS011;7210;51.502;10.722;2022-08-19T14:01:49;1.58;;;1.48;;
14251;SDS011;7210;51.502;10.722;2022-08-19T14:04:16;2.55;;;1.65;;
14251;SDS011;7210;51.502;10.722;2022-08-19T14:06:43;1.65;;;1.50;;
14251;SDS011;7210;51.502;10.722;2022-08-19T14:09:10;5.97;;;2.10;;
14251;SDS011;7210;51.502;10.722;2022-08-19T14:11:37;2.08;;;1.48;;
14251;SDS011;7210;51.502;10.722;2022-08-19T14:14:06;2.60;;;1.80;;
14251;SDS011;7210;51.502;10.722;2022-08-19T14:16:33;2.67;;;1.77;;
14251;SDS011;7210;51.502;10.722;2022-08-19T14:19:00;3.08;;;1.70;;
14251;SDS011;7210;51.502;10.722;2022-08-19T14:21:28;2.97;;;1.75;;
14251;SDS011;7210;51.502;10.722;2022-08-19T14:23:55;2.03;;;1.42;;
14251;SDS011;7210;51.502;10.722;2022-08-19T14:26:23;4.00;;;2.03;;
14251;SDS011;7210;51.502;10.722;2022-08-19T14:28:51;1.60;;;1.50;;
14251;SDS011;7210;51.502;10.722;2022-08-19T14:31:23;1.85;;;1.75;;
14251;SDS011;7210;51.502;10.722;2022-08-19T14:33:51;2.47;;;1.60;;
14251;SDS011;7210;51.502;10.722;2022-08-19T14:36:23;2.92;;;1.90;;
14251;SDS011;7210;51.502;10.722;2022-08-19T14:38:50;2.33;;;1.90;;
14251;SDS011;7210;51.502;10.722;2022-08-19T14:41:19;5.53;;;1.98;;
14251;SDS011;7210;51.502;10.722;2022-08-19T14:43:49;2.63;;;2.10;;
14251;SDS011;7210;51.502;10.722;2022-08-19T14:46:19;1.90;;;1.80;;
14251;SDS011;7210;51.502;10.722;2022-08-19T14:48:50;2.67;;;1.85;;
14251;SDS011;7210;51.502;10.722;2022-08-19T14:51:18;2.88;;;1.80;;
14251;SDS011;7210;51.502;10.722;2022-08-19T14:53:47;1.95;;;1.70;;
14251;SDS011;7210;51.502;10.722;2022-08-19T14:56:17;5.28;;;1.75;;
14251;SDS011;7210;51.502;10.722;2022-08-19T14:58:47;3.20;;;1.95;;
14251;SDS011;7210;51.502;10.722;2022-08-19T15:01:16;2.60;;;1.98;;
14251;SDS011;7210;51.502;10.722;2022-08-19T15:03:45;2.78;;;1.70;;